createdAt,value
2018-03-18T00:00:31.960Z,18.51
2018-03-18T00:01:31.951Z,18.46
2018-03-18T00:02:31.919Z,18.46
2018-03-18T00:03:31.983Z,18.49
2018-03-18T00:04:31.961Z,18.44
2018-03-18T00:05:31.937Z,18.47
2018-03-18T00:06:31.950Z,18.47
2018-03-18T00:07:31.903Z,18.43
2018-03-18T00:08:32.414Z,18.43
2018-03-18T00:09:31.957Z,18.46
2018-03-18T00:10:31.933Z,18.4
2018-03-18T00:11:31.952Z,18.43
2018-03-18T00:12:31.997Z,18.46
2018-03-18T00:13:31.924Z,18.4
2018-03-18T00:14:31.935Z,18.44
2018-03-18T00:15:31.960Z,18.43
2018-03-18T00:16:31.916Z,18.39
2018-03-18T00:17:31.908Z,18.39
2018-03-18T00:18:31.959Z,18.41
2018-03-18T00:19:32.338Z,18.37
2018-03-18T00:20:31.920Z,18.4
2018-03-18T00:21:31.939Z,18.41
2018-03-18T00:22:31.934Z,18.33
2018-03-18T00:23:31.932Z,18.36
2018-03-18T00:24:31.936Z,18.37
2018-03-18T00:25:31.904Z,18.32
2018-03-18T00:26:31.900Z,18.35
2018-03-18T00:27:31.944Z,18.37
2018-03-18T00:28:31.923Z,18.35
2018-03-18T00:29:31.905Z,18.35
2018-03-18T00:30:31.948Z,18.36
2018-03-18T00:31:31.913Z,18.3
2018-03-18T00:32:31.903Z,18.32
2018-03-18T00:33:31.940Z,18.37
2018-03-18T00:34:31.947Z,18.29
2018-03-18T00:35:31.968Z,18.35
2018-03-18T00:36:31.957Z,18.35
2018-03-18T00:37:31.889Z,18.3
2018-03-18T00:38:31.902Z,18.3
2018-03-18T00:39:31.936Z,18.33
2018-03-18T00:40:31.909Z,18.26
2018-03-18T00:41:31.955Z,18.3
2018-03-18T00:42:31.935Z,18.32
2018-03-18T00:43:31.930Z,18.29
2018-03-18T00:44:31.934Z,18.32
2018-03-18T00:45:32.014Z,18.3
2018-03-18T00:46:31.891Z,18.26
2018-03-18T00:47:32.042Z,18.29
2018-03-18T00:48:32.027Z,18.29
2018-03-18T00:49:31.895Z,18.22
2018-03-18T00:50:31.954Z,18.26
2018-03-18T00:51:31.937Z,18.28
2018-03-18T00:52:31.924Z,18.21
2018-03-18T00:53:31.923Z,18.23
2018-03-18T00:54:31.938Z,18.25
2018-03-18T00:55:31.925Z,18.23
2018-03-18T00:56:31.910Z,18.23
2018-03-18T00:57:31.938Z,18.23
2018-03-18T00:58:31.935Z,18.21
2018-03-18T00:59:31.914Z,18.23
2018-03-18T01:00:31.938Z,18.28
2018-03-18T01:01:31.939Z,18.19
2018-03-18T01:02:31.904Z,18.21
2018-03-18T01:03:32.194Z,18.21
2018-03-18T01:04:31.932Z,18.16
2018-03-18T01:05:31.897Z,18.21
2018-03-18T01:06:31.931Z,18.21
2018-03-18T01:07:31.923Z,18.18
2018-03-18T01:08:31.952Z,18.19
2018-03-18T01:09:31.927Z,18.19
2018-03-18T01:10:31.911Z,18.16
2018-03-18T01:11:31.879Z,18.16
2018-03-18T01:12:31.924Z,18.21
2018-03-18T01:13:31.934Z,18.12
2018-03-18T01:14:31.920Z,18.18
2018-03-18T01:15:31.899Z,18.18
2018-03-18T01:16:31.937Z,18.13
2018-03-18T01:17:31.947Z,18.16
2018-03-18T01:18:31.969Z,18.16
2018-03-18T01:19:31.935Z,18.15
2018-03-18T01:20:31.919Z,18.18
2018-03-18T01:21:31.933Z,18.18
2018-03-18T01:22:31.949Z,18.12
2018-03-18T01:23:31.905Z,18.12
2018-03-18T01:24:31.942Z,18.15
2018-03-18T01:25:31.890Z,18.11
2018-03-18T01:26:31.917Z,18.11
2018-03-18T01:27:31.920Z,18.16
2018-03-18T01:28:31.905Z,18.07
2018-03-18T01:29:31.907Z,18.09
2018-03-18T01:30:31.942Z,18.11
2018-03-18T01:31:31.870Z,18.09
2018-03-18T01:32:31.923Z,18.09
2018-03-18T01:33:31.923Z,18.11
2018-03-18T01:34:32.041Z,18.05
2018-03-18T01:35:31.876Z,18.08
2018-03-18T01:36:31.923Z,18.11
2018-03-18T01:37:31.913Z,18.04
2018-03-18T01:38:31.886Z,18.09
2018-03-18T01:39:31.938Z,18.07
2018-03-18T01:40:31.876Z,18.01
2018-03-18T01:41:31.882Z,18.04
2018-03-18T01:42:31.912Z,18.07
2018-03-18T01:43:31.917Z,18.02
2018-03-18T01:44:31.905Z,18.04
2018-03-18T01:45:31.911Z,18.07
2018-03-18T01:46:31.889Z,18.01
2018-03-18T01:47:31.881Z,18.04
2018-03-18T01:48:31.937Z,18.05
2018-03-18T01:49:31.930Z,18.01
2018-03-18T01:50:31.895Z,18.01
2018-03-18T01:51:31.908Z,18.07
2018-03-18T01:52:31.880Z,17.97
2018-03-18T01:53:31.926Z,18.02
2018-03-18T01:54:31.930Z,18.02
2018-03-18T01:55:31.891Z,17.95
2018-03-18T01:56:31.944Z,18
2018-03-18T01:57:31.915Z,18.04
2018-03-18T01:58:31.939Z,17.95
2018-03-18T01:59:31.892Z,17.98
2018-03-18T02:00:31.953Z,18.01
2018-03-18T02:01:31.868Z,17.95
2018-03-18T02:02:31.882Z,17.97
2018-03-18T02:03:31.925Z,18
2018-03-18T02:04:31.880Z,17.94
2018-03-18T02:05:31.911Z,18
2018-03-18T02:06:31.924Z,18
2018-03-18T02:07:31.866Z,17.94
2018-03-18T02:08:31.873Z,17.95
2018-03-18T02:09:31.911Z,17.98
2018-03-18T02:10:31.912Z,17.91
2018-03-18T02:11:31.903Z,17.97
2018-03-18T02:12:31.908Z,17.98
2018-03-18T02:13:31.906Z,17.91
2018-03-18T02:14:31.859Z,17.93
2018-03-18T02:15:31.899Z,17.97
2018-03-18T02:16:31.888Z,17.89
2018-03-18T02:17:31.887Z,17.95
2018-03-18T02:18:31.898Z,17.98
2018-03-18T02:19:31.879Z,17.91
2018-03-18T02:20:31.905Z,17.93
2018-03-18T02:21:31.930Z,17.95
2018-03-18T02:22:31.873Z,17.89
2018-03-18T02:23:31.884Z,17.89
2018-03-18T02:24:31.900Z,17.91
2018-03-18T02:25:31.935Z,17.87
2018-03-18T02:26:31.895Z,17.91
2018-03-18T02:27:31.913Z,17.94
2018-03-18T02:28:31.882Z,17.87
2018-03-18T02:29:31.888Z,17.89
2018-03-18T02:30:31.930Z,17.89
2018-03-18T02:31:31.930Z,17.85
2018-03-18T02:32:31.898Z,17.87
2018-03-18T02:33:31.918Z,17.91
2018-03-18T02:34:31.894Z,17.84
2018-03-18T02:35:31.920Z,17.87
2018-03-18T02:36:31.939Z,17.88
2018-03-18T02:37:31.921Z,17.84
2018-03-18T02:38:31.911Z,17.88
2018-03-18T02:39:31.937Z,17.88
2018-03-18T02:40:31.881Z,17.84
2018-03-18T02:41:31.874Z,17.88
2018-03-18T02:42:31.938Z,17.87
2018-03-18T02:43:31.865Z,17.81
2018-03-18T02:44:31.913Z,17.84
2018-03-18T02:45:31.929Z,17.84
2018-03-18T02:46:31.893Z,17.76
2018-03-18T02:47:31.889Z,17.84
2018-03-18T02:48:32.032Z,17.85
2018-03-18T02:49:31.993Z,17.78
2018-03-18T02:50:31.941Z,17.84
2018-03-18T02:51:31.969Z,17.85
2018-03-18T02:52:31.873Z,17.8
2018-03-18T02:53:31.897Z,17.84
2018-03-18T02:54:31.945Z,17.84
2018-03-18T02:55:31.891Z,17.81
2018-03-18T02:56:31.910Z,17.82
2018-03-18T02:57:31.939Z,17.81
2018-03-18T02:58:31.914Z,17.77
2018-03-18T02:59:31.887Z,17.82
2018-03-18T03:00:31.912Z,17.84
2018-03-18T03:01:31.895Z,17.7
2018-03-18T03:02:31.923Z,17.77
2018-03-18T03:03:31.914Z,17.8
2018-03-18T03:04:31.921Z,17.74
2018-03-18T03:05:31.995Z,17.81
2018-03-18T03:06:31.897Z,17.84
2018-03-18T03:07:31.884Z,17.77
2018-03-18T03:08:31.926Z,17.78
2018-03-18T03:09:31.878Z,17.82
2018-03-18T03:10:31.902Z,17.76
2018-03-18T03:11:31.868Z,17.77
2018-03-18T03:12:31.892Z,17.81
2018-03-18T03:13:31.848Z,17.71
2018-03-18T03:14:31.845Z,17.76
2018-03-18T03:15:31.919Z,17.78
2018-03-18T03:16:32.134Z,17.7
2018-03-18T03:17:31.886Z,17.74
2018-03-18T03:18:31.920Z,17.76
2018-03-18T03:19:31.871Z,17.67
2018-03-18T03:20:31.851Z,17.73
2018-03-18T03:21:31.896Z,17.76
2018-03-18T03:22:31.870Z,17.7
2018-03-18T03:23:31.857Z,17.71
2018-03-18T03:24:31.884Z,17.77
2018-03-18T03:25:31.868Z,17.7
2018-03-18T03:26:31.879Z,17.7
2018-03-18T03:27:32.019Z,17.73
2018-03-18T03:28:31.887Z,17.67
2018-03-18T03:29:31.836Z,17.7
2018-03-18T03:30:31.889Z,17.73
2018-03-18T03:31:31.888Z,17.64
2018-03-18T03:32:31.886Z,17.7
2018-03-18T03:33:31.904Z,17.71
2018-03-18T03:34:31.841Z,17.66
2018-03-18T03:35:31.889Z,17.7
2018-03-18T03:36:31.884Z,17.7
2018-03-18T03:37:31.853Z,17.66
2018-03-18T03:38:31.872Z,17.71
2018-03-18T03:39:31.895Z,17.68
2018-03-18T03:40:31.880Z,17.66
2018-03-18T03:41:31.901Z,17.71
2018-03-18T03:42:31.895Z,17.71
2018-03-18T03:43:31.832Z,17.63
2018-03-18T03:44:31.859Z,17.68
2018-03-18T03:45:31.882Z,17.7
2018-03-18T03:46:31.859Z,17.64
2018-03-18T03:47:32.005Z,17.67
2018-03-18T03:48:31.878Z,17.68
2018-03-18T03:49:31.878Z,17.63
2018-03-18T03:50:31.868Z,17.63
2018-03-18T03:51:31.870Z,17.7
2018-03-18T03:52:31.888Z,17.64
2018-03-18T03:53:31.865Z,17.66
2018-03-18T03:54:31.866Z,17.66
2018-03-18T03:55:31.866Z,17.59
2018-03-18T03:56:31.839Z,17.63
2018-03-18T03:57:31.889Z,17.66
2018-03-18T03:58:31.835Z,17.56
2018-03-18T03:59:31.864Z,17.57
2018-03-18T04:00:31.862Z,17.61
2018-03-18T04:01:31.839Z,17.57
2018-03-18T04:02:31.855Z,17.56
2018-03-18T04:03:31.864Z,17.63
2018-03-18T04:04:31.832Z,17.56
2018-03-18T04:05:31.838Z,17.6
2018-03-18T04:06:31.922Z,17.63
2018-03-18T04:07:31.864Z,17.54
2018-03-18T04:08:31.859Z,17.59
2018-03-18T04:09:31.866Z,17.63
2018-03-18T04:10:31.839Z,17.57
2018-03-18T04:11:31.849Z,17.59
2018-03-18T04:12:31.864Z,17.61
2018-03-18T04:13:31.849Z,17.59
2018-03-18T04:14:31.844Z,17.61
2018-03-18T04:15:31.869Z,17.6
2018-03-18T04:16:32.044Z,17.57
2018-03-18T04:17:31.846Z,17.6
2018-03-18T04:18:31.865Z,17.6
2018-03-18T04:19:31.855Z,17.54
2018-03-18T04:20:31.868Z,17.57
2018-03-18T04:21:31.955Z,17.59
2018-03-18T04:22:31.927Z,17.49
2018-03-18T04:23:31.877Z,17.54
2018-03-18T04:24:31.878Z,17.56
2018-03-18T04:25:31.832Z,17.52
2018-03-18T04:26:31.838Z,17.56
2018-03-18T04:27:31.872Z,17.56
2018-03-18T04:28:31.835Z,17.5
2018-03-18T04:29:31.822Z,17.52
2018-03-18T04:30:31.854Z,17.56
2018-03-18T04:31:31.876Z,17.48
2018-03-18T04:32:31.886Z,17.52
2018-03-18T04:33:31.852Z,17.56
2018-03-18T04:34:31.858Z,17.52
2018-03-18T04:35:31.843Z,17.54
2018-03-18T04:36:31.862Z,17.56
2018-03-18T04:37:31.882Z,17.45
2018-03-18T04:38:31.834Z,17.49
2018-03-18T04:39:31.852Z,17.53
2018-03-18T04:40:31.817Z,17.46
2018-03-18T04:41:31.829Z,17.52
2018-03-18T04:42:31.907Z,17.56
2018-03-18T04:43:31.852Z,17.45
2018-03-18T04:44:31.848Z,17.5
2018-03-18T04:45:31.861Z,17.53
2018-03-18T04:46:31.817Z,17.43
2018-03-18T04:47:31.819Z,17.48
2018-03-18T04:48:31.877Z,17.52
2018-03-18T04:49:31.917Z,17.48
2018-03-18T04:50:31.934Z,17.49
2018-03-18T04:51:31.853Z,17.5
2018-03-18T04:52:31.821Z,17.52
2018-03-18T04:53:31.850Z,17.54
2018-03-18T04:54:31.854Z,17.54
2018-03-18T04:55:31.825Z,17.52
2018-03-18T04:56:31.846Z,17.56
2018-03-18T04:57:31.868Z,17.56
2018-03-18T04:58:31.819Z,17.49
2018-03-18T04:59:31.812Z,17.53
2018-03-18T05:00:31.875Z,17.59
2018-03-18T05:01:31.868Z,17.5
2018-03-18T05:02:31.835Z,17.53
2018-03-18T05:03:31.848Z,17.57
2018-03-18T05:04:31.845Z,17.5
2018-03-18T05:05:31.842Z,17.54
2018-03-18T05:06:31.914Z,17.59
2018-03-18T05:07:31.805Z,17.53
2018-03-18T05:08:31.812Z,17.54
2018-03-18T05:09:31.852Z,17.59
2018-03-18T05:10:31.808Z,17.53
2018-03-18T05:11:31.818Z,17.6
2018-03-18T05:12:32.016Z,17.64
2018-03-18T05:13:31.838Z,17.59
2018-03-18T05:14:31.841Z,17.63
2018-03-18T05:15:31.865Z,17.68
2018-03-18T05:16:31.860Z,17.59
2018-03-18T05:17:31.844Z,17.64
2018-03-18T05:18:31.847Z,17.7
2018-03-18T05:19:31.840Z,17.67
2018-03-18T05:20:31.852Z,17.73
2018-03-18T05:21:31.853Z,17.77
2018-03-18T05:22:31.830Z,17.71
2018-03-18T05:23:31.837Z,17.76
2018-03-18T05:24:31.864Z,17.81
2018-03-18T05:25:31.843Z,17.77
2018-03-18T05:26:31.843Z,17.8
2018-03-18T05:27:31.841Z,17.84
2018-03-18T05:28:31.826Z,17.82
2018-03-18T05:29:31.846Z,17.88
2018-03-18T05:30:31.849Z,17.91
2018-03-18T05:31:31.822Z,17.89
2018-03-18T05:32:31.808Z,17.93
2018-03-18T05:33:31.840Z,17.97
2018-03-18T05:34:31.802Z,17.97
2018-03-18T05:35:32.010Z,18
2018-03-18T05:36:31.840Z,18.02
2018-03-18T05:37:31.799Z,18.02
2018-03-18T05:38:31.802Z,18.04
2018-03-18T05:39:31.844Z,18.07
2018-03-18T05:40:31.843Z,18.07
2018-03-18T05:41:31.839Z,18.12
2018-03-18T05:42:31.835Z,18.11
2018-03-18T05:43:31.881Z,18.12
2018-03-18T05:44:31.834Z,18.15
2018-03-18T05:45:32.013Z,18.18
2018-03-18T05:46:31.804Z,18.15
2018-03-18T05:47:31.850Z,18.19
2018-03-18T05:48:31.841Z,18.21
2018-03-18T05:49:31.795Z,18.23
2018-03-18T05:50:31.843Z,18.25
2018-03-18T05:51:31.855Z,18.28
2018-03-18T05:52:31.812Z,18.25
2018-03-18T05:53:31.825Z,18.29
2018-03-18T05:54:31.835Z,18.32
2018-03-18T05:55:31.854Z,18.3
2018-03-18T05:56:31.804Z,18.35
2018-03-18T05:57:31.827Z,18.33
2018-03-18T05:58:31.820Z,18.36
2018-03-18T05:59:31.820Z,18.36
2018-03-18T06:00:31.857Z,18.39
2018-03-18T06:01:31.800Z,18.37
2018-03-18T06:02:31.810Z,18.41
2018-03-18T06:03:31.837Z,18.44
2018-03-18T06:04:31.802Z,18.41
2018-03-18T06:05:31.846Z,18.44
2018-03-18T06:06:31.843Z,18.46
2018-03-18T06:07:31.844Z,18.43
2018-03-18T06:08:31.783Z,18.49
2018-03-18T06:09:31.839Z,18.49
2018-03-18T06:10:31.850Z,18.5
2018-03-18T06:11:31.804Z,18.53
2018-03-18T06:12:32.137Z,18.51
2018-03-18T06:13:31.867Z,18.49
2018-03-18T06:14:31.802Z,18.51
2018-03-18T06:15:31.833Z,18.53
2018-03-18T06:16:31.793Z,18.53
2018-03-18T06:17:31.857Z,18.56
2018-03-18T06:18:31.832Z,18.57
2018-03-18T06:19:31.843Z,18.53
2018-03-18T06:20:31.837Z,18.57
2018-03-18T06:21:31.827Z,18.62
2018-03-18T06:22:31.794Z,18.6
2018-03-18T06:23:31.804Z,18.62
2018-03-18T06:24:31.885Z,18.62
2018-03-18T06:25:31.815Z,18.6
2018-03-18T06:26:31.805Z,18.63
2018-03-18T06:27:31.817Z,18.66
2018-03-18T06:28:31.819Z,18.64
2018-03-18T06:29:31.813Z,18.64
2018-03-18T06:30:31.811Z,18.66
2018-03-18T06:31:32.347Z,18.64
2018-03-18T06:32:31.820Z,18.67
2018-03-18T06:33:31.841Z,18.68
2018-03-18T06:34:31.839Z,18.7
2018-03-18T06:35:31.832Z,18.7
2018-03-18T06:36:31.830Z,18.71
2018-03-18T06:37:32.175Z,18.7
2018-03-18T06:38:31.802Z,18.74
2018-03-18T06:39:31.827Z,18.74
2018-03-18T06:40:31.821Z,18.73
2018-03-18T06:41:31.822Z,18.75
2018-03-18T06:42:31.832Z,18.78
2018-03-18T06:43:31.786Z,18.74
2018-03-18T06:44:31.796Z,18.78
2018-03-18T06:45:31.814Z,18.8
2018-03-18T06:46:31.794Z,18.78
2018-03-18T06:47:31.778Z,18.78
2018-03-18T06:48:31.874Z,18.8
2018-03-18T06:49:31.783Z,18.8
2018-03-18T06:50:31.911Z,18.83
2018-03-18T06:51:31.951Z,18.81
2018-03-18T06:52:31.839Z,18.83
2018-03-18T06:53:31.860Z,18.81
2018-03-18T06:54:31.826Z,18.84
2018-03-18T06:55:31.790Z,18.83
2018-03-18T06:56:31.945Z,18.84
2018-03-18T06:57:31.815Z,18.85
2018-03-18T06:58:31.861Z,18.85
2018-03-18T06:59:31.797Z,18.84
2018-03-18T07:00:31.815Z,18.87
2018-03-18T07:01:32.025Z,18.85
2018-03-18T07:02:31.835Z,18.87
2018-03-18T07:03:31.806Z,18.9
2018-03-18T07:04:31.810Z,18.87
2018-03-18T07:05:31.800Z,18.91
2018-03-18T07:06:31.812Z,18.91
2018-03-18T07:07:31.817Z,18.9
2018-03-18T07:08:31.818Z,18.92
2018-03-18T07:09:31.839Z,18.92
2018-03-18T07:10:31.767Z,18.92
2018-03-18T07:11:31.785Z,18.94
2018-03-18T07:12:31.807Z,18.95
2018-03-18T07:13:31.813Z,18.95
2018-03-18T07:14:31.780Z,18.97
2018-03-18T07:15:31.865Z,18.98
2018-03-18T07:16:31.798Z,18.95
2018-03-18T07:17:31.767Z,18.97
2018-03-18T07:18:31.799Z,18.97
2018-03-18T07:19:31.780Z,18.95
2018-03-18T07:20:31.817Z,18.98
2018-03-18T07:21:31.845Z,19.02
2018-03-18T07:22:31.791Z,18.98
2018-03-18T07:23:31.829Z,19.01
2018-03-18T07:24:31.807Z,19.03
2018-03-18T07:25:32.155Z,19.01
2018-03-18T07:26:31.829Z,19.03
2018-03-18T07:27:31.826Z,19.03
2018-03-18T07:28:31.794Z,19.01
2018-03-18T07:29:31.788Z,19.02
2018-03-18T07:30:31.840Z,19.06
2018-03-18T07:31:31.808Z,19.03
2018-03-18T07:32:31.779Z,19.03
2018-03-18T07:33:31.803Z,19.08
2018-03-18T07:34:31.799Z,19.03
2018-03-18T07:35:31.777Z,19.06
2018-03-18T07:36:32.329Z,19.06
2018-03-18T07:37:31.779Z,19.08
2018-03-18T07:38:32.210Z,19.06
2018-03-18T07:39:31.797Z,19.08
2018-03-18T07:40:31.808Z,19.08
2018-03-18T07:41:31.799Z,19.09
2018-03-18T07:42:31.798Z,19.11
2018-03-18T07:43:31.809Z,19.08
2018-03-18T07:44:31.801Z,19.11
2018-03-18T07:45:31.807Z,19.11
2018-03-18T07:46:31.767Z,19.11
2018-03-18T07:47:31.777Z,19.11
2018-03-18T07:48:31.832Z,19.11
2018-03-18T07:49:31.761Z,19.12
2018-03-18T07:50:32.006Z,19.13
2018-03-18T07:51:31.840Z,19.15
2018-03-18T07:52:31.811Z,19.15
2018-03-18T07:53:31.778Z,19.15
2018-03-18T07:54:31.816Z,19.16
2018-03-18T07:55:31.757Z,19.13
2018-03-18T07:56:31.788Z,19.18
2018-03-18T07:57:31.817Z,19.18
2018-03-18T07:58:31.769Z,19.15
2018-03-18T07:59:31.751Z,19.16
2018-03-18T08:00:31.866Z,19.18
2018-03-18T08:01:31.777Z,19.16
2018-03-18T08:02:31.787Z,19.18
2018-03-18T08:03:31.862Z,19.19
2018-03-18T08:04:31.801Z,19.18
2018-03-18T08:05:31.765Z,19.2
2018-03-18T08:06:31.824Z,19.22
2018-03-18T08:07:32.255Z,19.2
2018-03-18T08:08:31.751Z,19.19
2018-03-18T08:09:31.804Z,19.23
2018-03-18T08:10:31.791Z,19.23
2018-03-18T08:11:31.773Z,19.22
2018-03-18T08:12:32.100Z,19.25
2018-03-18T08:13:31.754Z,19.2
2018-03-18T08:14:31.777Z,19.25
2018-03-18T08:15:31.796Z,19.25
2018-03-18T08:16:31.788Z,19.22
2018-03-18T08:17:31.791Z,19.25
2018-03-18T08:18:31.777Z,19.26
2018-03-18T08:19:31.781Z,19.25
2018-03-18T08:20:31.765Z,19.23
2018-03-18T08:21:31.796Z,19.27
2018-03-18T08:22:31.783Z,19.26
2018-03-18T08:23:31.777Z,19.26
2018-03-18T08:24:31.803Z,19.29
2018-03-18T08:25:31.749Z,19.25
2018-03-18T08:26:31.764Z,19.29
2018-03-18T08:27:31.789Z,19.27
2018-03-18T08:28:31.771Z,19.26
2018-03-18T08:29:31.765Z,19.3
2018-03-18T08:30:31.786Z,19.29
2018-03-18T08:31:31.770Z,19.27
2018-03-18T08:32:31.769Z,19.29
2018-03-18T08:33:31.806Z,19.32
2018-03-18T08:34:31.765Z,19.29
2018-03-18T08:35:31.747Z,19.3
2018-03-18T08:36:31.814Z,19.35
2018-03-18T08:37:31.776Z,19.25
2018-03-18T08:38:31.784Z,19.3
2018-03-18T08:39:31.804Z,19.33
2018-03-18T08:40:31.751Z,19.29
2018-03-18T08:41:31.780Z,19.29
2018-03-18T08:42:31.779Z,19.32
2018-03-18T08:43:31.752Z,19.29
2018-03-18T08:44:31.800Z,19.27
2018-03-18T08:45:31.777Z,19.3
2018-03-18T08:46:31.746Z,19.26
2018-03-18T08:47:31.759Z,19.27
2018-03-18T08:48:31.791Z,19.29
2018-03-18T08:49:31.847Z,19.23
2018-03-18T08:50:31.783Z,19.27
2018-03-18T08:51:31.903Z,19.27
2018-03-18T08:52:31.856Z,19.22
2018-03-18T08:53:31.733Z,19.25
2018-03-18T08:54:31.780Z,19.26
2018-03-18T08:55:31.790Z,19.22
2018-03-18T08:56:31.749Z,19.25
2018-03-18T08:57:31.814Z,19.29
2018-03-18T08:58:31.755Z,19.25
2018-03-18T08:59:31.770Z,19.26
2018-03-18T09:00:31.794Z,19.3
2018-03-18T09:01:31.776Z,19.25
2018-03-18T09:02:31.749Z,19.27
2018-03-18T09:03:31.772Z,19.32
2018-03-18T09:04:31.736Z,19.26
2018-03-18T09:05:31.770Z,19.27
2018-03-18T09:05:48.145Z,19.33
2018-03-18T09:06:48.128Z,19.39
2018-03-18T09:07:48.106Z,19.39
2018-03-18T09:08:48.128Z,19.42
2018-03-18T09:09:48.127Z,19.36
2018-03-18T09:10:48.102Z,19.37
2018-03-18T09:11:48.132Z,19.4
2018-03-18T09:12:48.103Z,19.39
2018-03-18T09:13:48.113Z,19.39
2018-03-18T09:14:48.121Z,19.46
2018-03-18T09:15:48.092Z,19.45
2018-03-18T09:16:48.153Z,19.45
2018-03-18T09:17:48.526Z,19.47
2018-03-18T09:18:48.094Z,19.49
2018-03-18T09:19:48.097Z,19.5
2018-03-18T09:20:48.157Z,19.53
2018-03-18T09:21:48.108Z,19.52
2018-03-18T09:22:48.109Z,19.53
2018-03-18T09:23:48.142Z,19.6
2018-03-18T09:24:48.103Z,19.6
2018-03-18T09:25:48.124Z,19.61
2018-03-18T09:26:48.137Z,19.61
2018-03-18T09:27:48.094Z,19.73
2018-03-18T09:28:48.159Z,19.7
2018-03-18T09:29:48.107Z,19.67
2018-03-18T09:30:48.099Z,19.65
2018-03-18T09:31:48.088Z,19.65
2018-03-18T09:32:48.110Z,19.64
2018-03-18T09:33:48.277Z,19.65
2018-03-18T09:34:48.098Z,19.64
2018-03-18T09:35:48.119Z,19.64
2018-03-18T09:36:48.084Z,19.68
2018-03-18T09:37:48.088Z,19.68
2018-03-18T09:38:48.149Z,19.74
2018-03-18T09:39:48.138Z,19.75
2018-03-18T09:40:48.084Z,19.75
2018-03-18T09:41:48.105Z,19.78
2018-03-18T09:42:48.095Z,19.85
2018-03-18T09:43:48.123Z,19.81
2018-03-18T09:44:47.956Z,19.82
2018-03-18T09:45:48.112Z,19.82
2018-03-18T09:46:48.091Z,19.84
2018-03-18T09:47:48.101Z,19.86
2018-03-18T09:48:48.362Z,19.85
2018-03-18T09:49:48.110Z,19.85
2018-03-18T09:50:48.120Z,19.86
2018-03-18T09:51:48.108Z,19.85
2018-03-18T09:52:48.111Z,19.85
2018-03-18T09:53:48.119Z,19.81
2018-03-18T09:54:48.088Z,19.85
2018-03-18T09:55:48.112Z,19.85
2018-03-18T09:56:48.116Z,19.84
2018-03-18T09:57:48.144Z,19.84
2018-03-18T09:58:48.097Z,19.85
2018-03-18T09:59:48.118Z,19.88
2018-03-18T10:00:48.127Z,19.86
2018-03-18T10:01:48.090Z,19.91
2018-03-18T10:02:48.178Z,19.88
2018-03-18T10:03:48.080Z,19.89
2018-03-18T10:04:48.129Z,19.89
2018-03-18T10:05:48.230Z,19.95
2018-03-18T10:06:48.088Z,19.93
2018-03-18T10:07:48.102Z,19.91
2018-03-18T10:08:48.089Z,19.91
2018-03-18T10:09:48.118Z,19.92
2018-03-18T10:10:48.106Z,19.93
2018-03-18T10:11:48.119Z,19.95
2018-03-18T10:12:48.094Z,19.93
2018-03-18T10:13:48.086Z,19.92
2018-03-18T10:14:48.090Z,19.93
2018-03-18T10:15:48.082Z,19.92
2018-03-18T10:16:48.132Z,19.95
2018-03-18T10:17:48.118Z,19.95
2018-03-18T10:18:48.096Z,19.93
2018-03-18T10:19:48.103Z,19.92
2018-03-18T10:20:48.115Z,19.93
2018-03-18T10:21:48.220Z,19.93
2018-03-18T10:22:48.075Z,19.92
2018-03-18T10:23:48.094Z,19.95
2018-03-18T10:24:48.104Z,19.95
2018-03-18T10:25:48.074Z,19.95
2018-03-18T10:26:48.156Z,19.96
2018-03-18T10:27:48.088Z,19.96
2018-03-18T10:28:48.121Z,19.92
2018-03-18T10:29:48.110Z,19.92
2018-03-18T10:30:48.069Z,19.93
2018-03-18T10:31:48.093Z,19.91
2018-03-18T10:32:48.109Z,19.93
2018-03-18T10:33:48.105Z,19.91
2018-03-18T10:34:48.089Z,19.93
2018-03-18T10:35:48.106Z,19.92
2018-03-18T10:36:48.104Z,19.99
2018-03-18T10:37:48.095Z,19.98
2018-03-18T10:38:48.090Z,19.99
2018-03-18T10:39:48.087Z,20.02
2018-03-18T10:40:48.091Z,20.01
2018-03-18T10:41:48.131Z,20.04
2018-03-18T10:42:48.241Z,20.02
2018-03-18T10:43:48.074Z,20.05
2018-03-18T10:44:48.087Z,20.07
2018-03-18T10:45:48.111Z,20.08
2018-03-18T10:46:48.076Z,20.11
2018-03-18T10:47:48.149Z,20.09
2018-03-18T10:48:48.174Z,20.23
2018-03-18T10:49:48.170Z,20.18
2018-03-18T10:50:48.096Z,20.2
2018-03-18T10:51:48.073Z,20.18
2018-03-18T10:52:48.089Z,20.15
2018-03-18T10:53:48.089Z,20.12
2018-03-18T10:54:48.099Z,20.13
2018-03-18T10:55:48.066Z,20.13
2018-03-18T10:56:48.097Z,20.11
2018-03-18T10:57:48.071Z,20.18
2018-03-18T10:58:48.101Z,20.32
2018-03-18T10:59:48.123Z,20.29
2018-03-18T11:00:48.059Z,20.54
2018-03-18T11:01:48.077Z,20.4
2018-03-18T11:02:48.135Z,20.3
2018-03-18T11:03:48.073Z,20.32
2018-03-18T11:04:48.097Z,20.27
2018-03-18T11:05:48.098Z,20.26
2018-03-18T11:06:48.073Z,20.25
2018-03-18T11:07:48.074Z,20.25
2018-03-18T11:08:48.399Z,20.19
2018-03-18T11:09:48.058Z,20.12
2018-03-18T11:10:48.060Z,20.13
2018-03-18T11:11:48.093Z,20.13
2018-03-18T11:12:48.107Z,20.07
2018-03-18T11:13:48.356Z,20.09
2018-03-18T11:14:48.121Z,20.11
2018-03-18T11:15:48.074Z,20.04
2018-03-18T11:16:48.222Z,20.07
2018-03-18T11:17:48.182Z,20.11
2018-03-18T11:18:48.095Z,20.13
2018-03-18T11:19:48.074Z,20.15
2018-03-18T11:20:48.243Z,20.15
2018-03-18T11:21:48.068Z,20.12
2018-03-18T11:22:48.306Z,20.13
2018-03-18T11:23:48.579Z,20.12
2018-03-18T11:24:48.229Z,20.15
2018-03-18T11:25:48.134Z,20.23
2018-03-18T11:28:23.703Z,20.46
2018-03-18T11:29:04.303Z,20.43
2018-03-18T11:30:04.736Z,20.39
2018-03-18T11:31:04.284Z,20.36
2018-03-18T11:32:04.373Z,20.36
2018-03-18T11:33:04.280Z,20.36
2018-03-18T11:34:04.470Z,20.36
2018-03-18T11:35:04.303Z,20.33
2018-03-18T11:36:04.424Z,20.39
2018-03-18T11:37:04.425Z,20.35
2018-03-18T11:38:04.408Z,20.37
2018-03-18T11:39:04.323Z,20.39
2018-03-18T11:40:04.416Z,20.37
2018-03-18T11:41:04.369Z,20.39
2018-03-18T11:42:04.549Z,20.4
2018-03-18T11:43:04.284Z,20.39
2018-03-18T11:43:57.030Z,20.42
2018-03-18T11:44:57.021Z,20.43
2018-03-18T11:45:56.971Z,20.42
2018-03-18T11:46:57.011Z,20.42
2018-03-18T11:53:49.283Z,20.67
2018-03-18T11:54:49.109Z,20.6
2018-03-18T11:55:25.189Z,20.54
2018-03-18T11:56:25.203Z,20.54
2018-03-18T11:57:23.814Z,20.53
2018-03-18T12:01:01.661Z,20.8
2018-03-18T12:02:01.698Z,20.74
2018-03-18T12:03:01.628Z,20.78
2018-03-18T12:04:01.633Z,20.67
2018-03-18T12:05:01.617Z,20.59
2018-03-18T12:06:01.630Z,20.55
2018-03-18T12:07:01.622Z,20.54
2018-03-18T12:08:01.623Z,20.5
2018-03-18T12:09:01.643Z,20.48
2018-03-18T12:10:01.622Z,20.44
2018-03-18T12:11:01.608Z,20.4
2018-03-18T12:12:01.700Z,20.44
2018-03-18T12:13:01.615Z,20.44
2018-03-18T12:14:01.659Z,20.5
2018-03-18T12:15:01.612Z,20.51
2018-03-18T12:16:01.605Z,20.48
2018-03-18T12:17:01.607Z,20.46
2018-03-18T12:18:01.606Z,20.46
2018-03-18T12:19:01.700Z,20.46
2018-03-18T12:20:01.613Z,20.46
2018-03-18T12:21:01.613Z,20.44
2018-03-18T12:22:01.603Z,20.44
2018-03-18T12:23:01.648Z,20.4
2018-03-18T12:24:01.624Z,20.42
2018-03-18T12:25:01.683Z,20.39
2018-03-18T12:26:01.675Z,20.37
2018-03-18T12:27:01.706Z,20.39
2018-03-18T12:28:01.839Z,20.37
2018-03-18T12:29:01.724Z,20.4
2018-03-18T12:30:01.652Z,20.37
2018-03-18T12:31:01.634Z,20.37
2018-03-18T12:32:01.664Z,20.4
2018-03-18T12:33:01.689Z,20.37
2018-03-18T12:34:01.692Z,20.37
2018-03-18T12:35:01.608Z,20.39
2018-03-18T12:36:01.632Z,20.39
2018-03-18T12:37:01.651Z,20.37
2018-03-18T12:38:01.697Z,20.37
2018-03-18T12:39:05.071Z,20.4
2018-03-18T12:40:01.941Z,20.39
2018-03-18T12:41:01.858Z,20.4
2018-03-18T12:42:01.690Z,20.42
2018-03-18T12:43:01.746Z,20.42
2018-03-18T12:44:01.731Z,20.48
2018-03-18T12:45:01.719Z,20.5
2018-03-18T12:46:01.592Z,20.53
2018-03-18T12:47:01.612Z,20.57
2018-03-18T12:48:01.586Z,20.53
2018-03-18T12:49:01.617Z,20.53
2018-03-18T12:50:01.601Z,20.54
2018-03-18T12:51:01.603Z,20.53
2018-03-18T12:52:01.595Z,20.53
2018-03-18T12:53:02.015Z,20.5
2018-03-18T12:54:01.607Z,20.48
2018-03-18T12:55:01.710Z,20.47
2018-03-18T12:56:01.602Z,20.47
2018-03-18T12:57:02.250Z,20.5
2018-03-18T12:58:01.729Z,20.48
2018-03-18T12:59:01.652Z,20.48
2018-03-18T13:00:01.745Z,20.51
2018-03-18T13:01:01.666Z,20.48
2018-03-18T13:02:01.691Z,20.46
2018-03-18T13:03:01.740Z,20.47
2018-03-18T13:04:01.788Z,20.43